CST,Max TemperatureF,Mean TemperatureF,Min TemperatureF,Max Dew PointF,MeanDew PointF,Min DewpointF,Max Humidity, Mean Humidity, Min Humidity, Max Sea Level PressureIn, Mean Sea Level PressureIn, Min Sea Level PressureIn, Max VisibilityMiles, Mean VisibilityMiles, Min VisibilityMiles, Max Wind SpeedMPH, Mean Wind SpeedMPH, Max Gust SpeedMPH,PrecipitationIn, CloudCover, Events, WindDirDegrees
2013-1-1,15,10,5,5,1,0,79,69,57,30.20,30.15,30.12,10,10,10,15,8,,0.00,1,,292
2013-1-2,24,17,10,21,10,1,93,71,58,30.13,30.06,30.00,10,10,10,14,9,,0.00,5,Snow,202
2013-1-3,26,18,10,25,18,7,100,89,74,30.23,30.14,30.03,10,8,2,23,14,26,0.00,5,Snow,261
2013-1-4,32,21,10,19,16,9,93,77,60,30.18,30.13,30.07,10,10,10,25,16,31,0.00,0,,238
2013-1-5,33,26,19,34,27,18,100,95,74,30.16,30.02,29.86,10,8,2,23,11,30,0.00,4,Snow,209
2013-1-6,32,23,14,32,19,12,100,83,69,30.26,30.09,29.86,10,10,7,26,15,24,0.00,3,,266
2013-1-7,33,24,14,28,21,12,100,83,64,30.24,30.10,30.01,10,10,10,26,14,32,0.00,0,,198
2013-1-8,37,32,26,32,29,27,100,89,75,30.07,30.01,29.93,10,8,3,24,11,31,0.00,1,,187
2013-1-9,39,32,26,32,27,23,100,78,60,30.45,30.22,29.93,10,10,10,30,19,38,0.00,0,,250
2013-1-10,39,32,24,36,29,23,100,88,65,30.45,30.20,29.81,10,8,0,15,7,21,0.17,3,Fog-Rain,106
2013-1-11,46,40,35,46,40,36,100,100,93,29.80,29.66,29.59,10,2,0,23,11,28,0.00,6,Fog-Rain-Snow,175
2013-1-12,46,34,23,45,28,16,100,81,64,29.99,29.83,29.60,10,10,1,30,19,39,0.00,4,Snow,251
2013-1-13,21,16,10,21,9,3,100,71,63,30.19,30.02,29.87,10,10,2,18,10,24,0.00,7,Snow,290
2013-1-14,24,16,8,10,7,3,92,70,50,30.40,30.35,30.20,10,10,10,12,8,,0.00,0,,242
2013-1-15,28,20,12,14,12,9,92,71,51,30.37,30.26,30.07,10,10,10,14,8,17,0.00,0,,210
2013-1-16,33,25,17,34,22,9,100,81,60,30.04,29.89,29.77,10,10,7,29,15,36,0.00,5,Snow,234
2013-1-17,30,24,19,21,10,1,93,58,39,30.35,30.26,30.07,10,10,10,14,8,17,0.00,0,,298
2013-1-18,41,30,19,34,26,18,93,80,65,30.37,30.05,29.83,10,10,10,30,12,40,0.00,3,,197
2013-1-19,44,32,17,34,28,5,93,71,47,29.96,29.78,29.67,10,10,10,44,20,58,0.00,2,,239
2013-1-20,17,12,8,3,0,-4,67,58,41,30.28,30.19,29.99,10,10,10,29,15,37,0.00,3,,286
2013-1-21,12,6,1,3,-6,-11,78,61,47,30.23,30.16,30.10,10,10,3,23,15,29,0.00,3,,281
2013-1-22,10,3,-4,-4,-8,-11,78,59,44,30.32,30.27,30.22,10,10,10,18,9,22,0.00,2,,278
2013-1-23,21,14,8,14,5,-4,80,66,52,30.35,30.17,30.06,10,8,1,22,11,31,0.00,7,Snow,258
2013-1-24,19,10,1,9,-2,-8,66,60,49,30.59,30.46,30.27,10,10,10,15,9,20,0.00,1,,44
2013-1-25,30,22,15,19,13,5,100,70,51,30.25,30.05,29.91,10,10,2,24,13,31,0.00,7,Snow,245
2013-1-26,26,18,10,14,7,3,73,61,43,30.35,30.28,30.18,10,10,10,13,6,,0.00,2,,278
2013-1-27,33,28,23,34,24,14,100,82,59,30.28,30.07,29.80,10,7,1,20,13,30,0.03,7,Snow,149
2013-1-28,41,38,35,39,36,36,100,97,81,29.92,29.84,29.73,10,5,0,17,11,18,0.41,6,Fog-Rain-Snow-Thunderstorm,149
2013-1-29,55,44,33,55,44,34,100,100,100,29.71,29.54,29.44,10,3,0,30,11,36,0.69,8,Fog-Rain-Snow-Thunderstorm,327
2013-1-30,33,25,17,34,27,10,100,95,73,29.62,29.40,29.29,10,5,0,22,16,30,0.08,8,Rain-Snow,337
2013-1-31,15,8,0,12,3,-6,93,75,67,30.13,29.86,29.62,10,8,2,23,17,30,0.00,6,Snow,274